sensor_id;sensor_type;location;lat;lon;timestamp;pressure;altitude;pressure_sealevel;temperature;humidity
49178;BME280;35016;55.674;37.468;2023-06-22T00:00:52;99285.13;;;14.22;34.40
49178;BME280;35016;55.674;37.468;2023-06-22T00:03:20;99282.69;;;14.20;34.22
49178;BME280;35016;55.674;37.468;2023-06-22T00:05:47;99280.53;;;14.17;34.08
49178;BME280;35016;55.674;37.468;2023-06-22T00:08:15;99280.78;;;14.16;34.27
49178;BME280;35016;55.674;37.468;2023-06-22T00:10:42;99276.44;;;14.15;34.32
49178;BME280;35016;55.674;37.468;2023-06-22T00:13:09;99283.56;;;14.11;34.44
49178;BME280;35016;55.674;37.468;2023-06-22T00:15:37;99275.97;;;14.08;34.68
49178;BME280;35016;55.674;37.468;2023-06-22T00:18:08;99282.00;;;14.05;34.42
49178;BME280;35016;55.674;37.468;2023-06-22T00:20:35;99276.31;;;14.01;34.62
49178;BME280;35016;55.674;37.468;2023-06-22T00:23:06;99277.41;;;14.00;34.29
49178;BME280;35016;55.674;37.468;2023-06-22T00:25:36;99276.59;;;14.00;34.60
49178;BME280;35016;55.674;37.468;2023-06-22T00:28:04;99280.16;;;14.00;34.56
49178;BME280;35016;55.674;37.468;2023-06-22T00:30:31;99292.69;;;14.01;34.64
49178;BME280;35016;55.674;37.468;2023-06-22T00:32:58;99286.41;;;14.01;34.82
49178;BME280;35016;55.674;37.468;2023-06-22T00:35:26;99279.63;;;13.98;34.72
49178;BME280;35016;55.674;37.468;2023-06-22T00:37:56;99279.91;;;13.97;34.90
49178;BME280;35016;55.674;37.468;2023-06-22T00:40:30;99278.28;;;13.95;34.74
49178;BME280;35016;55.674;37.468;2023-06-22T00:42:58;99282.13;;;13.94;34.74
49178;BME280;35016;55.674;37.468;2023-06-22T00:45:25;99275.31;;;13.92;34.74
49178;BME280;35016;55.674;37.468;2023-06-22T00:47:53;99274.50;;;13.91;34.69
49178;BME280;35016;55.674;37.468;2023-06-22T00:50:22;99276.44;;;13.91;34.76
49178;BME280;35016;55.674;37.468;2023-06-22T00:52:51;99284.31;;;13.92;34.88
49178;BME280;35016;55.674;37.468;2023-06-22T00:55:19;99279.97;;;13.91;34.99
49178;BME280;35016;55.674;37.468;2023-06-22T00:57:46;99274.81;;;13.90;35.04
49178;BME280;35016;55.674;37.468;2023-06-22T01:00:14;99282.16;;;13.89;34.98
49178;BME280;35016;55.674;37.468;2023-06-22T01:02:46;99282.44;;;13.88;35.20
49178;BME280;35016;55.674;37.468;2023-06-22T01:05:14;99279.72;;;13.88;35.15
49178;BME280;35016;55.674;37.468;2023-06-22T01:13:01;99279.44;;;13.89;35.19
49178;BME280;35016;55.674;37.468;2023-06-22T01:15:33;99276.44;;;13.91;35.28
49178;BME280;35016;55.674;37.468;2023-06-22T01:18:03;99288.44;;;13.90;35.28
49178;BME280;35016;55.674;37.468;2023-06-22T01:20:31;99286.22;;;13.92;35.00
49178;BME280;35016;55.674;37.468;2023-06-22T01:23:09;99291.69;;;13.92;35.24
49178;BME280;35016;55.674;37.468;2023-06-22T01:30:49;99289.44;;;13.99;35.17
49178;BME280;35016;55.674;37.468;2023-06-22T01:33:35;99285.03;;;14.03;35.37
49178;BME280;35016;55.674;37.468;2023-06-22T01:36:04;99285.53;;;14.05;35.36
49178;BME280;35016;55.674;37.468;2023-06-22T01:38:31;99287.69;;;14.08;35.44
49178;BME280;35016;55.674;37.468;2023-06-22T01:40:59;99293.38;;;14.12;35.30
49178;BME280;35016;55.674;37.468;2023-06-22T01:43:27;99286.00;;;14.12;35.42
49178;BME280;35016;55.674;37.468;2023-06-22T01:45:54;99280.78;;;14.16;35.34
49178;BME280;35016;55.674;37.468;2023-06-22T01:48:22;99281.34;;;14.18;35.40
49178;BME280;35016;55.674;37.468;2023-06-22T01:50:50;99278.84;;;14.21;35.49
49178;BME280;35016;55.674;37.468;2023-06-22T01:53:17;99272.00;;;14.24;35.32
49178;BME280;35016;55.674;37.468;2023-06-22T01:55:44;99277.97;;;14.26;35.46
49178;BME280;35016;55.674;37.468;2023-06-22T01:58:11;99282.03;;;14.29;35.39
49178;BME280;35016;55.674;37.468;2023-06-22T02:00:38;99276.00;;;14.32;35.48
49178;BME280;35016;55.674;37.468;2023-06-22T02:03:11;99294.22;;;14.36;35.60
49178;BME280;35016;55.674;37.468;2023-06-22T02:05:43;99290.94;;;14.39;35.44
49178;BME280;35016;55.674;37.468;2023-06-22T02:08:15;99294.72;;;14.43;35.36
49178;BME280;35016;55.674;37.468;2023-06-22T02:10:45;99295.78;;;14.47;35.53
49178;BME280;35016;55.674;37.468;2023-06-22T02:13:13;99293.00;;;14.52;35.55
49178;BME280;35016;55.674;37.468;2023-06-22T02:15:41;99285.88;;;14.56;35.57
49178;BME280;35016;55.674;37.468;2023-06-22T02:18:11;99288.53;;;14.62;35.33
49178;BME280;35016;55.674;37.468;2023-06-22T02:20:38;99285.22;;;14.65;35.31
49178;BME280;35016;55.674;37.468;2023-06-22T02:23:06;99285.44;;;14.68;35.48
49178;BME280;35016;55.674;37.468;2023-06-22T02:25:34;99289.22;;;14.72;35.36
49178;BME280;35016;55.674;37.468;2023-06-22T02:28:02;99285.63;;;14.77;35.40
49178;BME280;35016;55.674;37.468;2023-06-22T02:30:29;99276.03;;;14.79;35.59
49178;BME280;35016;55.674;37.468;2023-06-22T02:32:56;99270.00;;;14.82;35.54
49178;BME280;35016;55.674;37.468;2023-06-22T02:35:26;99271.63;;;14.83;35.46
49178;BME280;35016;55.674;37.468;2023-06-22T02:37:58;99268.28;;;14.86;35.70
49178;BME280;35016;55.674;37.468;2023-06-22T02:40:28;99263.34;;;14.88;35.67
49178;BME280;35016;55.674;37.468;2023-06-22T02:42:57;99255.09;;;14.94;35.46
49178;BME280;35016;55.674;37.468;2023-06-22T02:45:29;99261.59;;;14.98;35.47
49178;BME280;35016;55.674;37.468;2023-06-22T02:47:57;99256.34;;;15.01;35.62
49178;BME280;35016;55.674;37.468;2023-06-22T02:50:24;99258.22;;;15.06;35.58
49178;BME280;35016;55.674;37.468;2023-06-22T02:52:52;99255.69;;;15.09;35.79
49178;BME280;35016;55.674;37.468;2023-06-22T02:55:20;99251.78;;;15.15;35.48
49178;BME280;35016;55.674;37.468;2023-06-22T02:57:53;99250.06;;;15.19;35.65
49178;BME280;35016;55.674;37.468;2023-06-22T03:00:20;99251.91;;;15.24;35.79
49178;BME280;35016;55.674;37.468;2023-06-22T03:02:48;99250.22;;;15.28;35.53
49178;BME280;35016;55.674;37.468;2023-06-22T03:05:16;99250.97;;;15.34;35.54
49178;BME280;35016;55.674;37.468;2023-06-22T03:07:46;99243.00;;;15.37;35.56
49178;BME280;35016;55.674;37.468;2023-06-22T03:10:13;99241.28;;;15.41;35.72
49178;BME280;35016;55.674;37.468;2023-06-22T03:12:41;99243.13;;;15.46;35.55
49178;BME280;35016;55.674;37.468;2023-06-22T03:15:09;99244.66;;;15.52;35.81
49178;BME280;35016;55.674;37.468;2023-06-22T03:17:37;99238.28;;;15.57;35.80
49178;BME280;35016;55.674;37.468;2023-06-22T03:20:07;99245.34;;;15.63;35.55
49178;BME280;35016;55.674;37.468;2023-06-22T03:22:36;99244.44;;;15.67;35.39
49178;BME280;35016;55.674;37.468;2023-06-22T03:25:04;99233.44;;;15.72;35.58
49178;BME280;35016;55.674;37.468;2023-06-22T03:27:41;99241.53;;;15.77;35.46
49178;BME280;35016;55.674;37.468;2023-06-22T03:30:09;99235.66;;;15.84;35.78
49178;BME280;35016;55.674;37.468;2023-06-22T03:32:36;99238.03;;;15.91;35.52
49178;BME280;35016;55.674;37.468;2023-06-22T03:35:05;99233.28;;;15.96;35.72
49178;BME280;35016;55.674;37.468;2023-06-22T03:37:35;99234.50;;;16.04;35.66
49178;BME280;35016;55.674;37.468;2023-06-22T03:40:02;99232.19;;;16.11;35.86
49178;BME280;35016;55.674;37.468;2023-06-22T03:42:33;99232.31;;;16.20;35.41
49178;BME280;35016;55.674;37.468;2023-06-22T03:45:01;99222.28;;;16.29;35.51
49178;BME280;35016;55.674;37.468;2023-06-22T03:47:29;99232.19;;;16.38;35.49
49178;BME280;35016;55.674;37.468;2023-06-22T03:49:57;99226.22;;;16.50;35.37
49178;BME280;35016;55.674;37.468;2023-06-22T03:52:24;99222.47;;;16.60;35.51
49178;BME280;35016;55.674;37.468;2023-06-22T03:54:52;99214.06;;;16.70;35.67
49178;BME280;35016;55.674;37.468;2023-06-22T03:57:18;99216.78;;;16.84;35.38
49178;BME280;35016;55.674;37.468;2023-06-22T03:59:45;99216.75;;;16.97;35.26
49178;BME280;35016;55.674;37.468;2023-06-22T04:02:12;99221.06;;;17.12;35.33
49178;BME280;35016;55.674;37.468;2023-06-22T04:04:39;99220.41;;;17.29;35.38
49178;BME280;35016;55.674;37.468;2023-06-22T04:07:07;99217.63;;;17.43;35.39
49178;BME280;35016;55.674;37.468;2023-06-22T04:09:34;99221.41;;;17.55;35.06
49178;BME280;35016;55.674;37.468;2023-06-22T04:12:01;99212.66;;;17.67;35.07
49178;BME280;35016;55.674;37.468;2023-06-22T04:14:29;99214.81;;;17.79;35.21
49178;BME280;35016;55.674;37.468;2023-06-22T04:16:57;99218.59;;;17.91;35.16
49178;BME280;35016;55.674;37.468;2023-06-22T04:19:24;99203.97;;;18.05;35.17
49178;BME280;35016;55.674;37.468;2023-06-22T04:21:51;99202.13;;;18.22;35.10
49178;BME280;35016;55.674;37.468;2023-06-22T04:24:18;99208.47;;;18.40;34.90
49178;BME280;35016;55.674;37.468;2023-06-22T04:26:45;99205.47;;;18.59;34.73
49178;BME280;35016;55.674;37.468;2023-06-22T04:29:13;99199.22;;;18.76;34.77
49178;BME280;35016;55.674;37.468;2023-06-22T04:31:40;99203.13;;;18.92;34.78
49178;BME280;35016;55.674;37.468;2023-06-22T04:34:07;99209.28;;;19.06;34.68
49178;BME280;35016;55.674;37.468;2023-06-22T04:36:35;99209.13;;;19.20;34.64
49178;BME280;35016;55.674;37.468;2023-06-22T04:39:08;99198.75;;;19.34;34.68
49178;BME280;35016;55.674;37.468;2023-06-22T04:41:36;99197.31;;;19.45;34.69
49178;BME280;35016;55.674;37.468;2023-06-22T04:44:10;99198.13;;;19.55;34.63
49178;BME280;35016;55.674;37.468;2023-06-22T04:46:37;99209.94;;;19.64;34.67
49178;BME280;35016;55.674;37.468;2023-06-22T04:49:05;99204.75;;;19.71;34.52
49178;BME280;35016;55.674;37.468;2023-06-22T04:51:37;99195.03;;;19.73;34.51
49178;BME280;35016;55.674;37.468;2023-06-22T04:54:05;99202.47;;;19.73;34.47
49178;BME280;35016;55.674;37.468;2023-06-22T04:56:32;99193.91;;;19.66;34.68
49178;BME280;35016;55.674;37.468;2023-06-22T04:58:59;99196.53;;;19.54;34.77
49178;BME280;35016;55.674;37.468;2023-06-22T05:01:26;99190.84;;;19.41;34.89
49178;BME280;35016;55.674;37.468;2023-06-22T05:03:53;99193.75;;;19.36;35.00
49178;BME280;35016;55.674;37.468;2023-06-22T05:06:24;99195.22;;;19.42;34.76
49178;BME280;35016;55.674;37.468;2023-06-22T05:08:52;99199.91;;;19.50;34.83
49178;BME280;35016;55.674;37.468;2023-06-22T05:11:19;99205.06;;;19.61;34.61
49178;BME280;35016;55.674;37.468;2023-06-22T05:13:46;99202.34;;;19.69;34.63
49178;BME280;35016;55.674;37.468;2023-06-22T05:16:13;99206.66;;;19.79;34.51
49178;BME280;35016;55.674;37.468;2023-06-22T05:18:40;99198.72;;;19.86;34.55
49178;BME280;35016;55.674;37.468;2023-06-22T05:21:08;99204.50;;;19.93;34.28
49178;BME280;35016;55.674;37.468;2023-06-22T05:23:35;99198.38;;;19.96;34.30
49178;BME280;35016;55.674;37.468;2023-06-22T05:28:49;99195.59;;;20.05;34.20
49178;BME280;35016;55.674;37.468;2023-06-22T05:31:16;99197.00;;;20.11;34.18
49178;BME280;35016;55.674;37.468;2023-06-22T05:33:43;99200.38;;;20.17;34.26
49178;BME280;35016;55.674;37.468;2023-06-22T05:36:10;99198.75;;;20.24;34.42
49178;BME280;35016;55.674;37.468;2023-06-22T05:38:38;99207.31;;;20.31;34.12
49178;BME280;35016;55.674;37.468;2023-06-22T05:41:05;99215.56;;;20.31;34.28
49178;BME280;35016;55.674;37.468;2023-06-22T05:43:32;99206.84;;;20.29;34.36
49178;BME280;35016;55.674;37.468;2023-06-22T05:45:59;99207.50;;;20.26;34.25
49178;BME280;35016;55.674;37.468;2023-06-22T05:48:26;99207.81;;;20.25;34.39
49178;BME280;35016;55.674;37.468;2023-06-22T05:50:53;99200.88;;;20.19;34.40
49178;BME280;35016;55.674;37.468;2023-06-22T05:53:20;99203.47;;;20.15;34.53
49178;BME280;35016;55.674;37.468;2023-06-22T05:55:47;99201.84;;;20.14;34.38
49178;BME280;35016;55.674;37.468;2023-06-22T05:58:14;99203.00;;;20.13;34.47
49178;BME280;35016;55.674;37.468;2023-06-22T06:00:42;99208.97;;;20.15;34.49
49178;BME280;35016;55.674;37.468;2023-06-22T06:03:10;99205.72;;;20.22;34.33
49178;BME280;35016;55.674;37.468;2023-06-22T06:05:40;99202.47;;;20.28;34.40
49178;BME280;35016;55.674;37.468;2023-06-22T06:08:07;99205.03;;;20.33;34.28
49178;BME280;35016;55.674;37.468;2023-06-22T06:10:34;99196.75;;;20.33;34.41
49178;BME280;35016;55.674;37.468;2023-06-22T06:13:01;99197.72;;;20.37;34.30
49178;BME280;35016;55.674;37.468;2023-06-22T06:15:31;99193.00;;;20.47;34.25
49178;BME280;35016;55.674;37.468;2023-06-22T06:17:58;99199.75;;;20.58;34.11
49178;BME280;35016;55.674;37.468;2023-06-22T06:20:26;99196.94;;;20.66;34.22
49178;BME280;35016;55.674;37.468;2023-06-22T06:22:55;99201.25;;;20.76;34.12
49178;BME280;35016;55.674;37.468;2023-06-22T06:25:22;99199.72;;;20.87;33.84
49178;BME280;35016;55.674;37.468;2023-06-22T06:27:50;99199.53;;;20.92;34.20
49178;BME280;35016;55.674;37.468;2023-06-22T06:30:18;99201.41;;;21.00;34.02
49178;BME280;35016;55.674;37.468;2023-06-22T06:32:45;99191.59;;;21.12;33.83
49178;BME280;35016;55.674;37.468;2023-06-22T06:35:13;99198.13;;;21.28;33.97
49178;BME280;35016;55.674;37.468;2023-06-22T06:37:40;99187.91;;;21.49;33.73
49178;BME280;35016;55.674;37.468;2023-06-22T06:40:08;99190.13;;;21.68;33.67
49178;BME280;35016;55.674;37.468;2023-06-22T06:42:44;99192.59;;;21.82;33.53
49178;BME280;35016;55.674;37.468;2023-06-22T06:45:12;99193.06;;;21.96;33.68
49178;BME280;35016;55.674;37.468;2023-06-22T06:47:39;99195.22;;;22.11;33.54
49178;BME280;35016;55.674;37.468;2023-06-22T06:50:07;99187.88;;;22.28;33.61
49178;BME280;35016;55.674;37.468;2023-06-22T06:52:34;99191.66;;;22.47;33.33
49178;BME280;35016;55.674;37.468;2023-06-22T06:55:04;99190.72;;;22.68;33.28
49178;BME280;35016;55.674;37.468;2023-06-22T06:57:34;99191.19;;;22.82;33.27
49178;BME280;35016;55.674;37.468;2023-06-22T07:00:01;99197.88;;;22.93;33.24
49178;BME280;35016;55.674;37.468;2023-06-22T07:02:29;99197.16;;;22.96;33.34
49178;BME280;35016;55.674;37.468;2023-06-22T07:04:59;99207.06;;;22.97;33.34
49178;BME280;35016;55.674;37.468;2023-06-22T07:07:28;99199.59;;;22.98;33.32
49178;BME280;35016;55.674;37.468;2023-06-22T07:09:54;99195.50;;;23.07;33.39
49178;BME280;35016;55.674;37.468;2023-06-22T07:12:22;99193.09;;;23.18;33.33
49178;BME280;35016;55.674;37.468;2023-06-22T07:14:49;99189.34;;;23.26;33.28
49178;BME280;35016;55.674;37.468;2023-06-22T07:17:16;99196.69;;;23.34;33.32
49178;BME280;35016;55.674;37.468;2023-06-22T07:19:43;99198.84;;;23.41;33.40
49178;BME280;35016;55.674;37.468;2023-06-22T07:22:10;99191.50;;;23.45;33.25
49178;BME280;35016;55.674;37.468;2023-06-22T07:24:37;99184.34;;;23.44;33.30
49178;BME280;35016;55.674;37.468;2023-06-22T07:27:04;99181.31;;;23.49;33.33
49178;BME280;35016;55.674;37.468;2023-06-22T07:29:33;99182.00;;;23.58;33.24
49178;BME280;35016;55.674;37.468;2023-06-22T07:32:00;99175.94;;;23.68;33.23
49178;BME280;35016;55.674;37.468;2023-06-22T07:34:27;99179.34;;;23.77;33.08
49178;BME280;35016;55.674;37.468;2023-06-22T07:36:54;99174.53;;;23.90;33.05
49178;BME280;35016;55.674;37.468;2023-06-22T07:39:21;99167.50;;;24.08;32.90
49178;BME280;35016;55.674;37.468;2023-06-22T07:41:52;99174.63;;;24.25;32.79
49178;BME280;35016;55.674;37.468;2023-06-22T07:44:22;99178.16;;;24.38;32.75
49178;BME280;35016;55.674;37.468;2023-06-22T07:46:49;99182.25;;;24.44;32.89
49178;BME280;35016;55.674;37.468;2023-06-22T07:49:16;99192.81;;;24.38;32.75
49178;BME280;35016;55.674;37.468;2023-06-22T07:51:44;99180.47;;;24.36;32.81
49178;BME280;35016;55.674;37.468;2023-06-22T07:54:11;99173.69;;;24.33;32.74
49178;BME280;35016;55.674;37.468;2023-06-22T07:56:38;99179.69;;;24.35;32.84
49178;BME280;35016;55.674;37.468;2023-06-22T07:59:05;99171.09;;;24.40;32.92
49178;BME280;35016;55.674;37.468;2023-06-22T08:01:36;99179.84;;;24.43;32.83
49178;BME280;35016;55.674;37.468;2023-06-22T08:04:03;99172.34;;;24.43;32.78
49178;BME280;35016;55.674;37.468;2023-06-22T08:06:33;99169.13;;;24.41;32.80
49178;BME280;35016;55.674;37.468;2023-06-22T08:09:02;99167.06;;;24.38;32.74
49178;BME280;35016;55.674;37.468;2023-06-22T08:11:29;99160.53;;;24.46;32.69
49178;BME280;35016;55.674;37.468;2023-06-22T08:13:57;99163.09;;;24.55;32.80
49178;BME280;35016;55.674;37.468;2023-06-22T08:16:25;99161.94;;;24.56;32.64
49178;BME280;35016;55.674;37.468;2023-06-22T08:18:52;99158.09;;;24.60;32.69
49178;BME280;35016;55.674;37.468;2023-06-22T08:21:19;99162.28;;;24.70;32.99
49178;BME280;35016;55.674;37.468;2023-06-22T08:23:46;99164.41;;;24.77;32.63
49178;BME280;35016;55.674;37.468;2023-06-22T08:26:13;99167.41;;;24.87;32.68
49178;BME280;35016;55.674;37.468;2023-06-22T08:28:40;99155.84;;;25.01;32.57
49178;BME280;35016;55.674;37.468;2023-06-22T08:31:08;99155.78;;;25.17;32.41
49178;BME280;35016;55.674;37.468;2023-06-22T08:33:35;99153.66;;;25.29;32.19
49178;BME280;35016;55.674;37.468;2023-06-22T08:36:02;99157.44;;;25.41;32.35
49178;BME280;35016;55.674;37.468;2023-06-22T08:38:29;99151.81;;;25.37;32.42
49178;BME280;35016;55.674;37.468;2023-06-22T08:40:56;99148.41;;;25.24;32.36
49178;BME280;35016;55.674;37.468;2023-06-22T08:43:23;99140.44;;;25.04;32.34
49178;BME280;35016;55.674;37.468;2023-06-22T08:45:49;99147.53;;;24.85;32.55
49178;BME280;35016;55.674;37.468;2023-06-22T08:48:16;99137.31;;;24.70;32.66
49178;BME280;35016;55.674;37.468;2023-06-22T08:50:43;99136.53;;;24.54;32.68
49178;BME280;35016;55.674;37.468;2023-06-22T08:53:10;99135.13;;;24.44;32.47
49178;BME280;35016;55.674;37.468;2023-06-22T08:55:37;99136.13;;;24.36;32.57
49178;BME280;35016;55.674;37.468;2023-06-22T08:58:04;99139.25;;;24.19;32.61
49178;BME280;35016;55.674;37.468;2023-06-22T09:00:32;99133.81;;;24.06;32.70
49178;BME280;35016;55.674;37.468;2023-06-22T09:03:01;99141.59;;;24.01;32.60
49178;BME280;35016;55.674;37.468;2023-06-22T09:05:28;99140.22;;;23.95;32.56
49178;BME280;35016;55.674;37.468;2023-06-22T09:07:56;99128.63;;;23.89;32.60
49178;BME280;35016;55.674;37.468;2023-06-22T09:10:23;99135.31;;;23.88;32.71
49178;BME280;35016;55.674;37.468;2023-06-22T09:12:50;99118.50;;;23.97;32.35
49178;BME280;35016;55.674;37.468;2023-06-22T09:15:17;99120.75;;;24.07;32.33
49178;BME280;35016;55.674;37.468;2023-06-22T09:17:44;99118.50;;;24.13;32.15
49178;BME280;35016;55.674;37.468;2023-06-22T09:20:13;99117.44;;;24.17;32.16
49178;BME280;35016;55.674;37.468;2023-06-22T09:22:41;99116.28;;;24.18;32.05
49178;BME280;35016;55.674;37.468;2023-06-22T09:25:08;99115.47;;;24.18;32.06
49178;BME280;35016;55.674;37.468;2023-06-22T09:27:35;99103.56;;;24.17;32.19
49178;BME280;35016;55.674;37.468;2023-06-22T09:30:02;99113.50;;;24.18;32.13
49178;BME280;35016;55.674;37.468;2023-06-22T09:32:30;99109.91;;;24.18;32.14
49178;BME280;35016;55.674;37.468;2023-06-22T09:34:57;99108.41;;;24.20;32.14
49178;BME280;35016;55.674;37.468;2023-06-22T09:37:24;99102.50;;;24.22;31.93
49178;BME280;35016;55.674;37.468;2023-06-22T09:39:51;99119.84;;;24.19;31.91
49178;BME280;35016;55.674;37.468;2023-06-22T09:42:18;99114.66;;;24.17;32.05
49178;BME280;35016;55.674;37.468;2023-06-22T09:44:45;99109.47;;;24.16;31.90
49178;BME280;35016;55.674;37.468;2023-06-22T09:47:12;99106.78;;;24.19;32.16
49178;BME280;35016;55.674;37.468;2023-06-22T09:49:39;99095.53;;;24.28;32.08
49178;BME280;35016;55.674;37.468;2023-06-22T09:52:14;99094.19;;;24.37;32.07
49178;BME280;35016;55.674;37.468;2023-06-22T09:54:41;99102.22;;;24.43;31.77
49178;BME280;35016;55.674;37.468;2023-06-22T09:57:07;99086.03;;;24.45;31.72
49178;BME280;35016;55.674;37.468;2023-06-22T09:59:34;99090.41;;;24.46;31.78
49178;BME280;35016;55.674;37.468;2023-06-22T10:02:01;99077.06;;;24.51;31.92
49178;BME280;35016;55.674;37.468;2023-06-22T10:04:28;99080.94;;;24.47;31.83
49178;BME280;35016;55.674;37.468;2023-06-22T10:06:56;99080.84;;;24.43;32.02
49178;BME280;35016;55.674;37.468;2023-06-22T10:09:23;99082.53;;;24.48;31.79
49178;BME280;35016;55.674;37.468;2023-06-22T10:11:50;99071.22;;;24.56;31.79
49178;BME280;35016;55.674;37.468;2023-06-22T10:14:16;99071.47;;;24.67;31.93
49178;BME280;35016;55.674;37.468;2023-06-22T10:16:43;99078.47;;;24.80;31.85
49178;BME280;35016;55.674;37.468;2023-06-22T10:19:10;99072.38;;;24.90;31.78
49178;BME280;35016;55.674;37.468;2023-06-22T10:21:37;99068.59;;;24.98;31.46
49178;BME280;35016;55.674;37.468;2023-06-22T10:24:04;99070.34;;;25.07;31.62
49178;BME280;35016;55.674;37.468;2023-06-22T10:26:35;99050.19;;;25.10;31.44
49178;BME280;35016;55.674;37.468;2023-06-22T10:29:03;99055.00;;;25.13;31.53
49178;BME280;35016;55.674;37.468;2023-06-22T10:31:32;99047.47;;;25.13;31.53
49178;BME280;35016;55.674;37.468;2023-06-22T10:33:59;99050.53;;;25.08;31.56
49178;BME280;35016;55.674;37.468;2023-06-22T10:36:26;99028.84;;;24.94;31.80
49178;BME280;35016;55.674;37.468;2023-06-22T10:38:53;99039.09;;;24.90;31.66
49178;BME280;35016;55.674;37.468;2023-06-22T10:41:22;99025.72;;;24.96;31.76
49178;BME280;35016;55.674;37.468;2023-06-22T10:43:49;99031.00;;;25.01;31.64
49178;BME280;35016;55.674;37.468;2023-06-22T10:46:16;99030.25;;;25.04;31.75
49178;BME280;35016;55.674;37.468;2023-06-22T10:48:42;99024.75;;;25.08;31.69
49178;BME280;35016;55.674;37.468;2023-06-22T10:51:09;99023.75;;;25.16;31.56
49178;BME280;35016;55.674;37.468;2023-06-22T10:53:36;99025.53;;;25.27;31.48
49178;BME280;35016;55.674;37.468;2023-06-22T10:56:03;99024.19;;;25.41;31.36
49178;BME280;35016;55.674;37.468;2023-06-22T10:58:30;99017.88;;;25.44;31.45
49178;BME280;35016;55.674;37.468;2023-06-22T11:00:57;99017.16;;;25.47;31.35
49178;BME280;35016;55.674;37.468;2023-06-22T11:03:25;99024.88;;;25.57;31.49
49178;BME280;35016;55.674;37.468;2023-06-22T11:05:52;99008.75;;;25.66;31.46
49178;BME280;35016;55.674;37.468;2023-06-22T11:08:19;98998.22;;;25.75;31.32
49178;BME280;35016;55.674;37.468;2023-06-22T11:10:46;99009.97;;;25.91;31.49
49178;BME280;35016;55.674;37.468;2023-06-22T11:13:13;99002.97;;;26.01;31.23
49178;BME280;35016;55.674;37.468;2023-06-22T11:15:41;99009.50;;;26.12;30.94
49178;BME280;35016;55.674;37.468;2023-06-22T11:18:07;99000.78;;;26.14;31.00
49178;BME280;35016;55.674;37.468;2023-06-22T11:20:34;99001.59;;;26.14;31.22
49178;BME280;35016;55.674;37.468;2023-06-22T11:23:05;98996.97;;;26.25;31.25
49178;BME280;35016;55.674;37.468;2023-06-22T11:25:35;98989.69;;;26.44;31.07
49178;BME280;35016;55.674;37.468;2023-06-22T11:28:04;98995.88;;;26.60;31.05
49178;BME280;35016;55.674;37.468;2023-06-22T11:30:31;98994.78;;;26.68;30.98
49178;BME280;35016;55.674;37.468;2023-06-22T11:32:58;98987.56;;;26.64;31.40
49178;BME280;35016;55.674;37.468;2023-06-22T11:35:25;98985.44;;;26.53;31.16
49178;BME280;35016;55.674;37.468;2023-06-22T11:37:52;98989.19;;;26.65;31.34
49178;BME280;35016;55.674;37.468;2023-06-22T11:40:19;98976.97;;;27.10;30.93
49178;BME280;35016;55.674;37.468;2023-06-22T11:42:46;98980.38;;;27.77;30.68
49178;BME280;35016;55.674;37.468;2023-06-22T11:45:13;98970.03;;;28.44;30.20
49178;BME280;35016;55.674;37.468;2023-06-22T11:47:40;98985.81;;;28.94;29.94
49178;BME280;35016;55.674;37.468;2023-06-22T11:50:07;98971.06;;;29.05;29.90
49178;BME280;35016;55.674;37.468;2023-06-22T11:52:34;98971.84;;;29.05;30.09
49178;BME280;35016;55.674;37.468;2023-06-22T11:55:03;98965.88;;;28.99;30.40
49178;BME280;35016;55.674;37.468;2023-06-22T11:57:38;98969.88;;;29.13;30.28
49178;BME280;35016;55.674;37.468;2023-06-22T12:00:05;98953.53;;;29.33;30.15
49178;BME280;35016;55.674;37.468;2023-06-22T12:02:40;98954.34;;;29.83;30.32
49178;BME280;35016;55.674;37.468;2023-06-22T12:05:07;98950.72;;;30.14;30.01
49178;BME280;35016;55.674;37.468;2023-06-22T12:07:34;98939.34;;;30.68;30.15
49178;BME280;35016;55.674;37.468;2023-06-22T12:10:02;98944.50;;;31.35;29.64
49178;BME280;35016;55.674;37.468;2023-06-22T12:12:28;98936.75;;;31.54;29.73
49178;BME280;35016;55.674;37.468;2023-06-22T12:14:55;98947.31;;;31.35;28.85
49178;BME280;35016;55.674;37.468;2023-06-22T12:17:22;98933.88;;;31.09;30.27
49178;BME280;35016;55.674;37.468;2023-06-22T12:19:49;98929.75;;;30.65;29.98
49178;BME280;35016;55.674;37.468;2023-06-22T12:22:16;98936.19;;;30.51;30.76
49178;BME280;35016;55.674;37.468;2023-06-22T12:24:43;98927.03;;;31.13;30.66
49178;BME280;35016;55.674;37.468;2023-06-22T12:27:10;98912.19;;;32.06;29.70
49178;BME280;35016;55.674;37.468;2023-06-22T12:29:37;98931.53;;;33.22;29.18
49178;BME280;35016;55.674;37.468;2023-06-22T12:32:04;98925.84;;;34.20;29.29
49178;BME280;35016;55.674;37.468;2023-06-22T12:34:31;98923.28;;;34.85;28.71
49178;BME280;35016;55.674;37.468;2023-06-22T12:36:58;98938.97;;;35.38;28.46
49178;BME280;35016;55.674;37.468;2023-06-22T12:39:26;98921.91;;;35.74;28.48
49178;BME280;35016;55.674;37.468;2023-06-22T12:41:53;98913.13;;;36.01;27.64
49178;BME280;35016;55.674;37.468;2023-06-22T12:44:20;98909.94;;;36.15;28.20
49178;BME280;35016;55.674;37.468;2023-06-22T12:46:46;98902.31;;;35.83;28.37
49178;BME280;35016;55.674;37.468;2023-06-22T12:49:14;98896.19;;;35.07;28.55
49178;BME280;35016;55.674;37.468;2023-06-22T12:51:41;98893.91;;;34.06;28.51
49178;BME280;35016;55.674;37.468;2023-06-22T12:54:08;98900.25;;;33.20;30.10
49178;BME280;35016;55.674;37.468;2023-06-22T12:56:35;98903.44;;;32.95;29.89
49178;BME280;35016;55.674;37.468;2023-06-22T12:59:03;98892.91;;;33.73;29.15
49178;BME280;35016;55.674;37.468;2023-06-22T13:01:32;98901.31;;;34.76;28.13
49178;BME280;35016;55.674;37.468;2023-06-22T13:03:59;98889.53;;;35.79;27.72
49178;BME280;35016;55.674;37.468;2023-06-22T13:06:26;98896.31;;;36.81;27.29